Airfield :
LOGIN :

Register | Disclaimer

   EN    FR    IT 

 










Legend :    VFR   Marginal VFR   IFR   Intensive IFR   Very Intensive IFR
Visi :
Ceiling :
>= 8 km
>= 3000ft
5 to 8 km
1000 to 3000 ft
1500m to 5 km
500 to 1000 ft
800 to 1500m
200 to 500 ft
< 800m
< 200 ft
Symbols :   Thunderstorms  Fog  Heavy snow  Heavy precipitations  Wind > 20 kt
SIGMETs :     Misc.  Thunderstorms  Icing  Turbulence  Mountain Waves  Volcanic Ashes






- Airport Elevation : 300 ft
- IATA code : MLA


LMML - Malta Luqa

CURRENT METAR :
  • 020145Z 10002KT CAVOK 11/10 Q1018 NOSIG

EXPIRED METARs :
  • 020115Z 11001KT CAVOK 11/10 Q1018 NOSIG
  • 020045Z 00000KT CAVOK 11/10 Q1018 NOSIG
  • 020015Z VRB01KT CAVOK 10/09 Q1018 NOSIG
  • 012345Z 28001KT CAVOK 10/09 Q1018 NOSIG
  • 012315Z 30002KT CAVOK 11/09 Q1018 NOSIG

TAF TAF LMML
Valid from the 02 at 00:00 until the 03 at 00:00 UTC


012300Z 0200/0224 VRB05KT 9999 FEW020
TEMPO 0209/0218 8000 SHRA BKN020TCU
BECMG 0212/0215 14010KT



MET'MAP, your aeronautical weather chart ! - Copyright ORBIFLY December 2007 - Disclaimer

ORBIFLY MET'MAP TEAM :

Programming & Development : Alexandra Zaïnal
Original concept : Baudouin d'Aumeries
Technical & hardware support : Manuel Goepfert
Assistance : Marc-Olivier Méhu




SOURCES & CREDITS :

   NOAA